sensor_id;sensor_type;location;lat;lon;timestamp;temperature;humidity
431;DHT22;202;48.764;9.172;2022-07-11T00:00:54;17.50;50.40
431;DHT22;202;48.764;9.172;2022-07-11T00:04:13;17.50;50.50
431;DHT22;202;48.764;9.172;2022-07-11T00:13:48;17.70;50.60
431;DHT22;202;48.764;9.172;2022-07-11T00:16:34;17.80;50.60
431;DHT22;202;48.764;9.172;2022-07-11T00:19:35;17.90;50.40
431;DHT22;202;48.764;9.172;2022-07-11T00:22:44;18.10;50.20
431;DHT22;202;48.764;9.172;2022-07-11T00:25:47;18.10;49.90
431;DHT22;202;48.764;9.172;2022-07-11T00:30:16;18.10;50.90
431;DHT22;202;48.764;9.172;2022-07-11T00:32:25;18.00;50.80
431;DHT22;202;48.764;9.172;2022-07-11T00:35:11;18.00;50.80
431;DHT22;202;48.764;9.172;2022-07-11T00:37:58;18.20;50.40
431;DHT22;202;48.764;9.172;2022-07-11T00:40:39;18.20;50.50
431;DHT22;202;48.764;9.172;2022-07-11T00:43:28;18.10;51.00
431;DHT22;202;48.764;9.172;2022-07-11T00:46:04;18.10;51.00
431;DHT22;202;48.764;9.172;2022-07-11T00:49:04;18.00;50.80
431;DHT22;202;48.764;9.172;2022-07-11T00:51:48;17.90;50.90
431;DHT22;202;48.764;9.172;2022-07-11T00:54:43;17.80;51.30
431;DHT22;202;48.764;9.172;2022-07-11T00:57:20;17.80;51.00
431;DHT22;202;48.764;9.172;2022-07-11T00:59:50;17.60;51.90
431;DHT22;202;48.764;9.172;2022-07-11T01:02:32;17.60;52.40
431;DHT22;202;48.764;9.172;2022-07-11T01:05:28;17.60;52.60
431;DHT22;202;48.764;9.172;2022-07-11T01:08:09;17.70;52.90
431;DHT22;202;48.764;9.172;2022-07-11T01:10:46;17.80;52.60
431;DHT22;202;48.764;9.172;2022-07-11T01:13:27;17.80;52.60
431;DHT22;202;48.764;9.172;2022-07-11T01:16:11;17.80;52.50
431;DHT22;202;48.764;9.172;2022-07-11T01:18:51;17.80;52.60
431;DHT22;202;48.764;9.172;2022-07-11T01:21:29;17.90;52.50
431;DHT22;202;48.764;9.172;2022-07-11T01:24:08;17.90;52.40
431;DHT22;202;48.764;9.172;2022-07-11T01:26:45;17.80;53.50
431;DHT22;202;48.764;9.172;2022-07-11T01:29:35;17.80;53.60
431;DHT22;202;48.764;9.172;2022-07-11T01:32:29;17.60;53.40
431;DHT22;202;48.764;9.172;2022-07-11T01:35:19;17.70;53.30
431;DHT22;202;48.764;9.172;2022-07-11T01:38:00;17.60;53.60
431;DHT22;202;48.764;9.172;2022-07-11T01:40:34;17.50;54.00
431;DHT22;202;48.764;9.172;2022-07-11T01:43:30;17.40;54.10
431;DHT22;202;48.764;9.172;2022-07-11T01:46:15;17.30;54.10
431;DHT22;202;48.764;9.172;2022-07-11T01:49:00;17.20;54.50
431;DHT22;202;48.764;9.172;2022-07-11T01:51:41;17.20;55.00
431;DHT22;202;48.764;9.172;2022-07-11T01:54:22;17.20;55.00
431;DHT22;202;48.764;9.172;2022-07-11T01:57:01;17.20;55.60
431;DHT22;202;48.764;9.172;2022-07-11T01:59:41;17.20;55.60
431;DHT22;202;48.764;9.172;2022-07-11T02:02:19;17.10;56.20
431;DHT22;202;48.764;9.172;2022-07-11T02:04:59;17.10;55.90
431;DHT22;202;48.764;9.172;2022-07-11T02:07:51;17.00;56.50
431;DHT22;202;48.764;9.172;2022-07-11T02:10:46;17.00;56.20
431;DHT22;202;48.764;9.172;2022-07-11T02:13:29;16.90;56.80
431;DHT22;202;48.764;9.172;2022-07-11T02:16:00;16.90;57.70
431;DHT22;202;48.764;9.172;2022-07-11T02:18:44;16.90;57.20
431;DHT22;202;48.764;9.172;2022-07-11T02:21:20;16.90;57.10
431;DHT22;202;48.764;9.172;2022-07-11T02:23:59;16.90;57.30
431;DHT22;202;48.764;9.172;2022-07-11T02:26:44;16.90;57.80
431;DHT22;202;48.764;9.172;2022-07-11T02:29:15;16.90;57.60
431;DHT22;202;48.764;9.172;2022-07-11T02:31:53;16.90;57.70
431;DHT22;202;48.764;9.172;2022-07-11T02:34:27;16.90;57.80
431;DHT22;202;48.764;9.172;2022-07-11T02:36:56;16.80;57.90
431;DHT22;202;48.764;9.172;2022-07-11T02:39:30;16.90;58.30
431;DHT22;202;48.764;9.172;2022-07-11T02:42:04;16.90;58.30
431;DHT22;202;48.764;9.172;2022-07-11T02:44:48;16.80;58.90
431;DHT22;202;48.764;9.172;2022-07-11T02:47:24;16.80;58.80
431;DHT22;202;48.764;9.172;2022-07-11T02:50:21;16.80;59.30
431;DHT22;202;48.764;9.172;2022-07-11T02:52:59;16.70;59.30
431;DHT22;202;48.764;9.172;2022-07-11T02:55:29;16.80;59.40
431;DHT22;202;48.764;9.172;2022-07-11T02:58:08;16.80;59.40
431;DHT22;202;48.764;9.172;2022-07-11T03:00:46;16.90;59.50
431;DHT22;202;48.764;9.172;2022-07-11T03:03:24;16.90;59.50
431;DHT22;202;48.764;9.172;2022-07-11T03:06:08;17.00;59.60
431;DHT22;202;48.764;9.172;2022-07-11T03:08:47;16.90;59.50
431;DHT22;202;48.764;9.172;2022-07-11T03:11:20;16.90;59.70
431;DHT22;202;48.764;9.172;2022-07-11T03:14:09;16.80;60.80
431;DHT22;202;48.764;9.172;2022-07-11T03:16:46;16.80;60.40
431;DHT22;202;48.764;9.172;2022-07-11T03:19:44;16.70;60.50
431;DHT22;202;48.764;9.172;2022-07-11T03:22:23;16.80;60.90
431;DHT22;202;48.764;9.172;2022-07-11T03:25:08;16.70;60.90
431;DHT22;202;48.764;9.172;2022-07-11T03:27:41;16.70;61.50
431;DHT22;202;48.764;9.172;2022-07-11T03:30:16;16.70;61.60
431;DHT22;202;48.764;9.172;2022-07-11T03:32:55;16.80;61.80
431;DHT22;202;48.764;9.172;2022-07-11T03:35:37;16.90;61.40
431;DHT22;202;48.764;9.172;2022-07-11T03:38:21;16.80;61.50
431;DHT22;202;48.764;9.172;2022-07-11T03:40:55;16.70;62.30
431;DHT22;202;48.764;9.172;2022-07-11T03:43:27;16.80;62.60
431;DHT22;202;48.764;9.172;2022-07-11T03:46:07;16.80;63.20
431;DHT22;202;48.764;9.172;2022-07-11T03:48:46;16.80;63.00
431;DHT22;202;48.764;9.172;2022-07-11T03:51:26;16.90;62.90
431;DHT22;202;48.764;9.172;2022-07-11T03:54:07;16.90;62.60
431;DHT22;202;48.764;9.172;2022-07-11T03:56:52;17.00;61.90
431;DHT22;202;48.764;9.172;2022-07-11T03:59:21;16.90;61.60
431;DHT22;202;48.764;9.172;2022-07-11T04:02:04;16.90;62.00
431;DHT22;202;48.764;9.172;2022-07-11T04:04:48;16.80;62.60
431;DHT22;202;48.764;9.172;2022-07-11T04:07:54;16.80;63.40
431;DHT22;202;48.764;9.172;2022-07-11T04:10:27;16.70;63.80
431;DHT22;202;48.764;9.172;2022-07-11T04:13:17;16.70;64.20
431;DHT22;202;48.764;9.172;2022-07-11T04:16:02;16.80;64.30
431;DHT22;202;48.764;9.172;2022-07-11T04:18:57;16.80;64.70
431;DHT22;202;48.764;9.172;2022-07-11T04:21:51;16.80;65.00
431;DHT22;202;48.764;9.172;2022-07-11T04:24:48;16.90;65.10
431;DHT22;202;48.764;9.172;2022-07-11T04:27:46;17.00;65.00
431;DHT22;202;48.764;9.172;2022-07-11T04:30:36;17.00;64.50
431;DHT22;202;48.764;9.172;2022-07-11T04:33:13;17.10;64.20
431;DHT22;202;48.764;9.172;2022-07-11T04:42:40;17.40;63.80
431;DHT22;202;48.764;9.172;2022-07-11T04:45:18;17.50;63.20
431;DHT22;202;48.764;9.172;2022-07-11T04:48:11;17.50;63.20
431;DHT22;202;48.764;9.172;2022-07-11T04:51:17;17.70;62.30
431;DHT22;202;48.764;9.172;2022-07-11T04:53:54;17.80;61.90
431;DHT22;202;48.764;9.172;2022-07-11T04:56:47;17.80;61.90
431;DHT22;202;48.764;9.172;2022-07-11T04:59:35;17.90;61.40
431;DHT22;202;48.764;9.172;2022-07-11T05:02:24;17.90;60.40
431;DHT22;202;48.764;9.172;2022-07-11T05:05:23;17.90;60.40
431;DHT22;202;48.764;9.172;2022-07-11T05:08:17;17.90;60.70
431;DHT22;202;48.764;9.172;2022-07-11T05:11:17;17.90;60.40
431;DHT22;202;48.764;9.172;2022-07-11T05:14:10;17.90;61.50
431;DHT22;202;48.764;9.172;2022-07-11T05:17:21;18.00;61.20
431;DHT22;202;48.764;9.172;2022-07-11T05:23:43;18.00;60.40
431;DHT22;202;48.764;9.172;2022-07-11T05:26:11;18.10;60.00
431;DHT22;202;48.764;9.172;2022-07-11T05:28:40;18.00;60.00
431;DHT22;202;48.764;9.172;2022-07-11T05:31:07;18.10;60.10
431;DHT22;202;48.764;9.172;2022-07-11T05:33:35;18.20;59.80
431;DHT22;202;48.764;9.172;2022-07-11T05:36:03;18.30;59.40
431;DHT22;202;48.764;9.172;2022-07-11T05:38:30;18.40;59.40
431;DHT22;202;48.764;9.172;2022-07-11T05:40:56;18.40;59.20
431;DHT22;202;48.764;9.172;2022-07-11T05:43:25;18.40;58.50
431;DHT22;202;48.764;9.172;2022-07-11T05:45:57;18.50;58.50
431;DHT22;202;48.764;9.172;2022-07-11T05:48:40;18.30;59.10
431;DHT22;202;48.764;9.172;2022-07-11T05:51:08;18.40;59.40
431;DHT22;202;48.764;9.172;2022-07-11T05:53:41;18.40;58.60
431;DHT22;202;48.764;9.172;2022-07-11T05:56:10;18.40;59.20
431;DHT22;202;48.764;9.172;2022-07-11T05:58:37;18.50;58.70
431;DHT22;202;48.764;9.172;2022-07-11T06:01:07;18.50;58.70
431;DHT22;202;48.764;9.172;2022-07-11T06:03:35;18.60;58.20
431;DHT22;202;48.764;9.172;2022-07-11T06:06:04;18.50;58.40
431;DHT22;202;48.764;9.172;2022-07-11T06:08:32;18.50;58.40
431;DHT22;202;48.764;9.172;2022-07-11T06:11:12;18.50;58.70
431;DHT22;202;48.764;9.172;2022-07-11T06:13:43;18.60;58.60
431;DHT22;202;48.764;9.172;2022-07-11T06:16:11;18.70;58.10
431;DHT22;202;48.764;9.172;2022-07-11T06:18:38;18.80;58.50
431;DHT22;202;48.764;9.172;2022-07-11T06:21:11;18.90;57.70
431;DHT22;202;48.764;9.172;2022-07-11T06:23:38;19.00;57.20
431;DHT22;202;48.764;9.172;2022-07-11T06:26:11;19.10;57.10
431;DHT22;202;48.764;9.172;2022-07-11T06:28:42;19.20;56.30
431;DHT22;202;48.764;9.172;2022-07-11T06:31:10;19.30;55.00
431;DHT22;202;48.764;9.172;2022-07-11T06:33:39;19.20;55.40
431;DHT22;202;48.764;9.172;2022-07-11T06:36:07;19.30;55.50
431;DHT22;202;48.764;9.172;2022-07-11T06:38:47;19.40;55.30
431;DHT22;202;48.764;9.172;2022-07-11T06:41:16;19.50;55.40
431;DHT22;202;48.764;9.172;2022-07-11T06:43:43;19.60;54.50
431;DHT22;202;48.764;9.172;2022-07-11T06:46:13;19.60;52.50
431;DHT22;202;48.764;9.172;2022-07-11T06:48:40;19.60;53.10
431;DHT22;202;48.764;9.172;2022-07-11T06:51:07;19.60;53.70
431;DHT22;202;48.764;9.172;2022-07-11T06:53:34;19.60;54.40
431;DHT22;202;48.764;9.172;2022-07-11T06:56:03;19.70;54.40
431;DHT22;202;48.764;9.172;2022-07-11T06:58:30;19.80;53.80
431;DHT22;202;48.764;9.172;2022-07-11T07:01:01;19.90;53.60
431;DHT22;202;48.764;9.172;2022-07-11T07:03:28;20.00;54.10
431;DHT22;202;48.764;9.172;2022-07-11T07:08:31;20.20;51.30
431;DHT22;202;48.764;9.172;2022-07-11T07:10:58;20.20;52.80
431;DHT22;202;48.764;9.172;2022-07-11T07:13:29;20.10;52.70
431;DHT22;202;48.764;9.172;2022-07-11T07:15:56;20.20;51.90
431;DHT22;202;48.764;9.172;2022-07-11T07:18:24;20.40;51.20
431;DHT22;202;48.764;9.172;2022-07-11T07:20:51;20.60;50.80
431;DHT22;202;48.764;9.172;2022-07-11T07:46:26;22.00;46.30
431;DHT22;202;48.764;9.172;2022-07-11T07:59:33;23.10;41.90
431;DHT22;202;48.764;9.172;2022-07-11T08:02:04;23.10;42.10
431;DHT22;202;48.764;9.172;2022-07-11T08:04:30;23.30;41.30
431;DHT22;202;48.764;9.172;2022-07-11T08:06:57;23.50;41.10
431;DHT22;202;48.764;9.172;2022-07-11T08:09:25;23.20;38.90
431;DHT22;202;48.764;9.172;2022-07-11T08:11:56;22.80;40.10
431;DHT22;202;48.764;9.172;2022-07-11T08:14:23;22.70;40.80
431;DHT22;202;48.764;9.172;2022-07-11T08:16:50;22.60;42.10
431;DHT22;202;48.764;9.172;2022-07-11T08:19:18;22.70;41.60
431;DHT22;202;48.764;9.172;2022-07-11T08:22:36;23.10;41.50
431;DHT22;202;48.764;9.172;2022-07-11T08:25:19;24.00;40.20
431;DHT22;202;48.764;9.172;2022-07-11T08:27:49;25.00;36.90
431;DHT22;202;48.764;9.172;2022-07-11T08:30:17;25.50;35.10
431;DHT22;202;48.764;9.172;2022-07-11T08:32:50;26.00;33.90
431;DHT22;202;48.764;9.172;2022-07-11T08:35:41;26.60;33.50
431;DHT22;202;48.764;9.172;2022-07-11T08:38:11;27.20;30.80
431;DHT22;202;48.764;9.172;2022-07-11T08:40:52;26.80;30.90
431;DHT22;202;48.764;9.172;2022-07-11T08:43:34;25.00;34.50
431;DHT22;202;48.764;9.172;2022-07-11T08:46:03;24.20;36.70
431;DHT22;202;48.764;9.172;2022-07-11T08:48:42;24.50;36.40
431;DHT22;202;48.764;9.172;2022-07-11T08:51:20;25.00;35.40
431;DHT22;202;48.764;9.172;2022-07-11T08:53:52;25.70;35.10
431;DHT22;202;48.764;9.172;2022-07-11T08:56:25;26.50;33.10
431;DHT22;202;48.764;9.172;2022-07-11T08:59:00;27.40;30.90
431;DHT22;202;48.764;9.172;2022-07-11T09:01:51;27.40;30.00
431;DHT22;202;48.764;9.172;2022-07-11T09:04:42;27.70;29.40
431;DHT22;202;48.764;9.172;2022-07-11T09:07:14;28.40;29.00
431;DHT22;202;48.764;9.172;2022-07-11T09:09:41;27.60;29.10
431;DHT22;202;48.764;9.172;2022-07-11T09:12:16;27.30;29.60
431;DHT22;202;48.764;9.172;2022-07-11T09:14:56;27.30;28.60
431;DHT22;202;48.764;9.172;2022-07-11T09:17:31;27.10;29.50
431;DHT22;202;48.764;9.172;2022-07-11T09:20:01;27.20;28.80
431;DHT22;202;48.764;9.172;2022-07-11T09:22:44;27.20;29.90
431;DHT22;202;48.764;9.172;2022-07-11T09:25:28;27.60;28.60
431;DHT22;202;48.764;9.172;2022-07-11T09:27:59;28.00;28.80
431;DHT22;202;48.764;9.172;2022-07-11T09:30:31;27.30;28.50
431;DHT22;202;48.764;9.172;2022-07-11T09:33:00;27.00;29.40
431;DHT22;202;48.764;9.172;2022-07-11T09:35:30;26.90;29.30
431;DHT22;202;48.764;9.172;2022-07-11T09:38:14;26.50;29.80
431;DHT22;202;48.764;9.172;2022-07-11T09:40:45;26.10;29.90
431;DHT22;202;48.764;9.172;2022-07-11T09:43:25;25.90;31.50
431;DHT22;202;48.764;9.172;2022-07-11T09:46:04;25.60;33.00
431;DHT22;202;48.764;9.172;2022-07-11T09:48:44;25.40;32.40
431;DHT22;202;48.764;9.172;2022-07-11T09:51:27;25.40;33.30
431;DHT22;202;48.764;9.172;2022-07-11T09:54:02;25.20;33.90
431;DHT22;202;48.764;9.172;2022-07-11T09:56:45;25.10;33.60
431;DHT22;202;48.764;9.172;2022-07-11T09:59:20;24.80;33.90
431;DHT22;202;48.764;9.172;2022-07-11T10:01:54;24.20;35.20
431;DHT22;202;48.764;9.172;2022-07-11T10:04:23;24.00;36.00
431;DHT22;202;48.764;9.172;2022-07-11T10:06:50;24.00;36.70
431;DHT22;202;48.764;9.172;2022-07-11T10:09:31;24.00;35.10
431;DHT22;202;48.764;9.172;2022-07-11T10:12:01;24.00;34.40
431;DHT22;202;48.764;9.172;2022-07-11T10:14:44;24.00;36.00
431;DHT22;202;48.764;9.172;2022-07-11T10:17:44;23.90;34.70
431;DHT22;202;48.764;9.172;2022-07-11T10:20:17;23.80;35.80
431;DHT22;202;48.764;9.172;2022-07-11T10:23:13;24.00;36.00
431;DHT22;202;48.764;9.172;2022-07-11T10:26:08;24.30;35.70
431;DHT22;202;48.764;9.172;2022-07-11T10:29:13;24.60;32.90
431;DHT22;202;48.764;9.172;2022-07-11T10:35:26;24.80;32.80
431;DHT22;202;48.764;9.172;2022-07-11T10:41:50;24.90;33.00
431;DHT22;202;48.764;9.172;2022-07-11T10:44:50;24.70;32.70
431;DHT22;202;48.764;9.172;2022-07-11T10:48:06;25.10;32.30
431;DHT22;202;48.764;9.172;2022-07-11T10:51:03;25.00;31.70
431;DHT22;202;48.764;9.172;2022-07-11T10:53:54;25.10;33.30
431;DHT22;202;48.764;9.172;2022-07-11T10:56:53;25.40;31.90
431;DHT22;202;48.764;9.172;2022-07-11T10:59:31;25.30;31.40
431;DHT22;202;48.764;9.172;2022-07-11T11:03:00;25.40;32.90
431;DHT22;202;48.764;9.172;2022-07-11T11:05:50;25.40;31.70
431;DHT22;202;48.764;9.172;2022-07-11T11:08:45;25.20;31.90
431;DHT22;202;48.764;9.172;2022-07-11T11:11:52;25.10;32.60
431;DHT22;202;48.764;9.172;2022-07-11T11:14:36;25.20;31.90
431;DHT22;202;48.764;9.172;2022-07-11T11:17:37;25.20;32.50
431;DHT22;202;48.764;9.172;2022-07-11T11:20:42;25.40;31.90
431;DHT22;202;48.764;9.172;2022-07-11T11:24:02;25.40;32.10
431;DHT22;202;48.764;9.172;2022-07-11T11:26:57;25.50;32.10
431;DHT22;202;48.764;9.172;2022-07-11T11:33:20;26.20;30.90
431;DHT22;202;48.764;9.172;2022-07-11T11:35:59;26.40;30.00
431;DHT22;202;48.764;9.172;2022-07-11T11:38:29;26.30;30.50
431;DHT22;202;48.764;9.172;2022-07-11T11:41:28;26.30;30.10
431;DHT22;202;48.764;9.172;2022-07-11T13:22:35;25.80;33.30
431;DHT22;202;48.764;9.172;2022-07-11T14:23:24;25.30;34.50
431;DHT22;202;48.764;9.172;2022-07-11T14:26:31;25.30;35.60
431;DHT22;202;48.764;9.172;2022-07-11T14:29:28;25.30;35.70
431;DHT22;202;48.764;9.172;2022-07-11T14:35:19;25.40;35.40
431;DHT22;202;48.764;9.172;2022-07-11T14:41:29;25.30;35.20
431;DHT22;202;48.764;9.172;2022-07-11T14:44:22;25.30;36.10
431;DHT22;202;48.764;9.172;2022-07-11T14:48:53;25.30;35.80
431;DHT22;202;48.764;9.172;2022-07-11T14:50:44;25.40;35.60
431;DHT22;202;48.764;9.172;2022-07-11T14:58:12;25.50;35.80
431;DHT22;202;48.764;9.172;2022-07-11T15:46:52;24.90;36.70
431;DHT22;202;48.764;9.172;2022-07-11T15:49:23;24.80;35.90
431;DHT22;202;48.764;9.172;2022-07-11T15:52:19;24.80;36.70
431;DHT22;202;48.764;9.172;2022-07-11T15:54:46;24.80;35.80
431;DHT22;202;48.764;9.172;2022-07-11T15:57:13;24.80;36.30
431;DHT22;202;48.764;9.172;2022-07-11T15:59:41;24.70;36.20
431;DHT22;202;48.764;9.172;2022-07-11T16:02:08;24.70;36.60
431;DHT22;202;48.764;9.172;2022-07-11T16:04:36;24.70;36.60
431;DHT22;202;48.764;9.172;2022-07-11T16:07:06;24.60;36.50
431;DHT22;202;48.764;9.172;2022-07-11T16:09:33;24.60;35.70
431;DHT22;202;48.764;9.172;2022-07-11T16:12:01;24.40;36.30
431;DHT22;202;48.764;9.172;2022-07-11T16:14:28;24.30;36.30
431;DHT22;202;48.764;9.172;2022-07-11T16:16:57;24.30;36.30
431;DHT22;202;48.764;9.172;2022-07-11T16:19:24;24.20;36.20
431;DHT22;202;48.764;9.172;2022-07-11T16:21:53;24.20;36.80
431;DHT22;202;48.764;9.172;2022-07-11T16:24:20;24.10;36.40
431;DHT22;202;48.764;9.172;2022-07-11T16:26:52;24.20;36.90
431;DHT22;202;48.764;9.172;2022-07-11T16:29:20;24.20;36.90
431;DHT22;202;48.764;9.172;2022-07-11T16:31:47;24.30;36.30
431;DHT22;202;48.764;9.172;2022-07-11T16:34:16;24.20;36.20
431;DHT22;202;48.764;9.172;2022-07-11T16:36:46;24.20;36.20
431;DHT22;202;48.764;9.172;2022-07-11T16:39:13;24.20;36.20
431;DHT22;202;48.764;9.172;2022-07-11T16:42:00;24.30;36.30
431;DHT22;202;48.764;9.172;2022-07-11T16:44:44;24.30;36.30
431;DHT22;202;48.764;9.172;2022-07-11T16:47:11;24.30;36.30
431;DHT22;202;48.764;9.172;2022-07-11T16:49:39;24.30;36.30
431;DHT22;202;48.764;9.172;2022-07-11T16:52:06;24.30;36.30
431;DHT22;202;48.764;9.172;2022-07-11T16:54:34;24.30;37.10
431;DHT22;202;48.764;9.172;2022-07-11T16:57:03;24.30;36.80
431;DHT22;202;48.764;9.172;2022-07-11T16:59:31;24.40;37.00
431;DHT22;202;48.764;9.172;2022-07-11T17:01:58;24.50;37.00
431;DHT22;202;48.764;9.172;2022-07-11T17:04:31;24.50;36.60
431;DHT22;202;48.764;9.172;2022-07-11T17:07:08;24.60;36.50
431;DHT22;202;48.764;9.172;2022-07-11T17:09:35;24.60;36.50
431;DHT22;202;48.764;9.172;2022-07-11T17:12:14;24.60;36.50
431;DHT22;202;48.764;9.172;2022-07-11T17:14:41;24.60;36.50
431;DHT22;202;48.764;9.172;2022-07-11T17:17:10;24.60;36.50
431;DHT22;202;48.764;9.172;2022-07-11T17:19:40;24.60;36.50
431;DHT22;202;48.764;9.172;2022-07-11T17:22:13;24.60;36.60
431;DHT22;202;48.764;9.172;2022-07-11T17:24:54;24.50;36.40
431;DHT22;202;48.764;9.172;2022-07-11T17:27:25;24.50;36.40
431;DHT22;202;48.764;9.172;2022-07-11T17:29:57;24.50;36.50
431;DHT22;202;48.764;9.172;2022-07-11T17:32:29;24.50;36.40
431;DHT22;202;48.764;9.172;2022-07-11T17:35:01;24.40;36.30
431;DHT22;202;48.764;9.172;2022-07-11T17:37:30;24.40;36.30
431;DHT22;202;48.764;9.172;2022-07-11T17:40:03;24.40;36.30
431;DHT22;202;48.764;9.172;2022-07-11T17:42:33;24.30;36.30
431;DHT22;202;48.764;9.172;2022-07-11T17:45:07;24.20;36.20
431;DHT22;202;48.764;9.172;2022-07-11T17:47:36;24.10;36.10
431;DHT22;202;48.764;9.172;2022-07-11T17:50:06;24.00;36.00
431;DHT22;202;48.764;9.172;2022-07-11T17:52:41;23.90;36.30
431;DHT22;202;48.764;9.172;2022-07-11T17:55:14;24.00;36.20
431;DHT22;202;48.764;9.172;2022-07-11T17:57:48;24.00;36.90
431;DHT22;202;48.764;9.172;2022-07-11T18:00:20;23.90;36.20
431;DHT22;202;48.764;9.172;2022-07-11T18:02:50;24.00;36.00
431;DHT22;202;48.764;9.172;2022-07-11T18:05:21;23.90;35.90
431;DHT22;202;48.764;9.172;2022-07-11T18:07:52;23.90;35.90
431;DHT22;202;48.764;9.172;2022-07-11T18:10:21;23.90;36.40
431;DHT22;202;48.764;9.172;2022-07-11T18:12:48;23.90;35.90
431;DHT22;202;48.764;9.172;2022-07-11T18:15:29;23.90;36.50
431;DHT22;202;48.764;9.172;2022-07-11T18:18:03;23.90;36.20
431;DHT22;202;48.764;9.172;2022-07-11T18:20:40;23.90;36.00
431;DHT22;202;48.764;9.172;2022-07-11T18:23:20;23.80;35.80
431;DHT22;202;48.764;9.172;2022-07-11T18:25:52;23.80;35.80
431;DHT22;202;48.764;9.172;2022-07-11T18:28:19;23.80;35.90
431;DHT22;202;48.764;9.172;2022-07-11T18:30:49;23.80;35.80
431;DHT22;202;48.764;9.172;2022-07-11T18:33:18;23.80;35.80
431;DHT22;202;48.764;9.172;2022-07-11T18:35:48;23.80;35.80
431;DHT22;202;48.764;9.172;2022-07-11T18:38:19;23.80;35.80
431;DHT22;202;48.764;9.172;2022-07-11T18:41:07;23.70;35.70
431;DHT22;202;48.764;9.172;2022-07-11T18:43:48;23.70;35.80
431;DHT22;202;48.764;9.172;2022-07-11T18:46:44;23.70;35.80
431;DHT22;202;48.764;9.172;2022-07-11T18:49:27;23.70;36.50
431;DHT22;202;48.764;9.172;2022-07-11T18:51:57;23.60;36.50
431;DHT22;202;48.764;9.172;2022-07-11T18:54:30;23.60;36.70
431;DHT22;202;48.764;9.172;2022-07-11T18:57:18;23.60;37.00
431;DHT22;202;48.764;9.172;2022-07-11T18:59:55;23.60;37.00
431;DHT22;202;48.764;9.172;2022-07-11T19:02:25;23.50;37.50
431;DHT22;202;48.764;9.172;2022-07-11T19:05:02;23.50;37.30
431;DHT22;202;48.764;9.172;2022-07-11T19:07:32;23.50;37.70
431;DHT22;202;48.764;9.172;2022-07-11T19:10:13;23.50;38.40
431;DHT22;202;48.764;9.172;2022-07-11T19:12:54;23.50;38.20
431;DHT22;202;48.764;9.172;2022-07-11T19:15:32;23.40;38.20
431;DHT22;202;48.764;9.172;2022-07-11T19:18:13;23.40;38.50
431;DHT22;202;48.764;9.172;2022-07-11T19:20:45;23.30;38.60
431;DHT22;202;48.764;9.172;2022-07-11T19:23:18;23.20;39.00
431;DHT22;202;48.764;9.172;2022-07-11T19:26:10;23.30;39.10
431;DHT22;202;48.764;9.172;2022-07-11T19:28:41;23.30;39.00
431;DHT22;202;48.764;9.172;2022-07-11T19:31:11;23.20;39.20
431;DHT22;202;48.764;9.172;2022-07-11T19:33:50;23.10;39.50
431;DHT22;202;48.764;9.172;2022-07-11T19:36:22;23.10;39.90
431;DHT22;202;48.764;9.172;2022-07-11T19:38:51;23.10;39.80
431;DHT22;202;48.764;9.172;2022-07-11T19:41:19;23.10;40.60
431;DHT22;202;48.764;9.172;2022-07-11T19:43:48;22.90;40.30
431;DHT22;202;48.764;9.172;2022-07-11T19:46:19;22.90;40.90
431;DHT22;202;48.764;9.172;2022-07-11T19:48:51;22.80;41.00
431;DHT22;202;48.764;9.172;2022-07-11T19:51:24;22.70;41.50
431;DHT22;202;48.764;9.172;2022-07-11T19:53:59;22.60;42.20
431;DHT22;202;48.764;9.172;2022-07-11T19:56:30;22.60;41.50
431;DHT22;202;48.764;9.172;2022-07-11T19:59:16;22.60;41.20
431;DHT22;202;48.764;9.172;2022-07-11T20:01:50;22.60;41.40
431;DHT22;202;48.764;9.172;2022-07-11T20:04:21;22.60;41.80
431;DHT22;202;48.764;9.172;2022-07-11T20:06:57;22.50;41.90
431;DHT22;202;48.764;9.172;2022-07-11T20:09:24;22.40;42.70
431;DHT22;202;48.764;9.172;2022-07-11T20:12:00;22.30;43.10
431;DHT22;202;48.764;9.172;2022-07-11T20:14:36;22.30;43.10
431;DHT22;202;48.764;9.172;2022-07-11T20:17:14;22.30;43.10
431;DHT22;202;48.764;9.172;2022-07-11T20:19:44;22.30;43.20
431;DHT22;202;48.764;9.172;2022-07-11T20:22:18;22.20;44.10
431;DHT22;202;48.764;9.172;2022-07-11T20:24:46;22.20;44.20
431;DHT22;202;48.764;9.172;2022-07-11T20:27:20;22.20;43.60
431;DHT22;202;48.764;9.172;2022-07-11T20:29:54;22.20;43.40
431;DHT22;202;48.764;9.172;2022-07-11T20:32:31;22.20;43.50
431;DHT22;202;48.764;9.172;2022-07-11T20:38:05;22.10;44.40
431;DHT22;202;48.764;9.172;2022-07-11T20:40:54;22.00;44.40
431;DHT22;202;48.764;9.172;2022-07-11T20:44:07;21.90;44.40
431;DHT22;202;48.764;9.172;2022-07-11T20:46:48;21.80;45.00
431;DHT22;202;48.764;9.172;2022-07-11T20:49:33;21.80;45.10
431;DHT22;202;48.764;9.172;2022-07-11T20:55:11;21.70;44.20
431;DHT22;202;48.764;9.172;2022-07-11T20:57:43;21.70;44.70
431;DHT22;202;48.764;9.172;2022-07-11T21:00:19;21.60;46.50
431;DHT22;202;48.764;9.172;2022-07-11T21:02:48;21.50;45.90
431;DHT22;202;48.764;9.172;2022-07-11T21:08:50;21.70;45.50
431;DHT22;202;48.764;9.172;2022-07-11T21:18:31;21.30;46.60
431;DHT22;202;48.764;9.172;2022-07-11T21:24:38;21.30;47.60
431;DHT22;202;48.764;9.172;2022-07-11T21:27:39;21.50;46.50
431;DHT22;202;48.764;9.172;2022-07-11T21:30:24;21.40;46.60
431;DHT22;202;48.764;9.172;2022-07-11T21:33:15;21.50;46.30
431;DHT22;202;48.764;9.172;2022-07-11T21:36:22;21.40;46.30
431;DHT22;202;48.764;9.172;2022-07-11T21:39:14;21.40;46.80
431;DHT22;202;48.764;9.172;2022-07-11T21:41:49;21.40;47.10
431;DHT22;202;48.764;9.172;2022-07-11T21:44:25;21.40;47.60
431;DHT22;202;48.764;9.172;2022-07-11T21:47:08;21.30;47.20
431;DHT22;202;48.764;9.172;2022-07-11T21:49:47;21.20;47.30
431;DHT22;202;48.764;9.172;2022-07-11T21:52:43;21.20;47.50
431;DHT22;202;48.764;9.172;2022-07-11T21:55:13;21.30;48.10
431;DHT22;202;48.764;9.172;2022-07-11T21:57:44;21.20;47.80
431;DHT22;202;48.764;9.172;2022-07-11T22:00:20;21.30;47.90
431;DHT22;202;48.764;9.172;2022-07-11T22:03:30;21.30;47.70
431;DHT22;202;48.764;9.172;2022-07-11T22:06:18;21.30;48.40
431;DHT22;202;48.764;9.172;2022-07-11T22:20:02;21.10;49.20
431;DHT22;202;48.764;9.172;2022-07-11T22:22:40;21.10;49.40
431;DHT22;202;48.764;9.172;2022-07-11T22:25:13;21.00;49.70
431;DHT22;202;48.764;9.172;2022-07-11T22:41:23;21.00;49.40
431;DHT22;202;48.764;9.172;2022-07-11T22:44:00;21.00;49.40
431;DHT22;202;48.764;9.172;2022-07-11T22:46:43;20.80;50.00
431;DHT22;202;48.764;9.172;2022-07-11T22:49:18;20.80;50.30
431;DHT22;202;48.764;9.172;2022-07-11T22:52:12;20.80;50.40
431;DHT22;202;48.764;9.172;2022-07-11T22:54:41;20.80;50.80
431;DHT22;202;48.764;9.172;2022-07-11T22:57:24;20.80;51.20
431;DHT22;202;48.764;9.172;2022-07-11T23:00:18;20.80;51.10
431;DHT22;202;48.764;9.172;2022-07-11T23:02:57;20.80;51.30
431;DHT22;202;48.764;9.172;2022-07-11T23:08:50;20.60;52.10
431;DHT22;202;48.764;9.172;2022-07-11T23:11:31;20.60;52.90
431;DHT22;202;48.764;9.172;2022-07-11T23:14:02;20.50;53.10
431;DHT22;202;48.764;9.172;2022-07-11T23:16:29;20.60;53.20
431;DHT22;202;48.764;9.172;2022-07-11T23:18:59;20.70;53.20